WetterOnline ( http://www.wetteronline.de )

Wetter aktuell Frankfurt (Oder)

Aktuelles Wetter: Lindenberg b. Beeskow (104m)

6-stündlich | Neueste Meldungen
Ortszeit Temperatur Wetter
So, 20.05. 20:00 19.8° C fast wolkenlos
So, 20.05. 14:00 21.0° C fast wolkenlos
So, 20.05. 8:00 11.8° C fast wolkenlos
So, 20.05. 2:00 10.5° C wolkenlos
Sa, 19.05. 20:00 18.9° C leicht bewölkt
Sa, 19.05. 14:00 19.7° C leicht bewölkt
Sa, 19.05. 8:00 12.4° C leicht bewölkt
Sa, 19.05. 2:00 11.6° C wolkig
Ortszeit Temperatur Wetter
So, 20.05. 21:30 17.1° C fast wolkenlos
So, 20.05. 21:20 17.1° C wolkenlos
So, 20.05. 21:10 17.3° C wolkenlos
So, 20.05. 21:00 18.0° C fast wolkenlos
So, 20.05. 20:50 18.0° C wolkenlos
So, 20.05. 20:40 18.2° C wolkenlos
So, 20.05. 20:30 18.8° C wolkenlos
So, 20.05. 20:00 19.8° C fast wolkenlos
So, 20.05. 19:30 20.9° C fast wolkenlos
So, 20.05. 19:00 21.5° C fast wolkenlos
So, 20.05. 18:30 21.8° C fast wolkenlos
Ortszeit Relative Feuchte Sichtweite
So, 20.05. 20:00 35% 45 km
So, 20.05. 14:00 25% 50 km
So, 20.05. 8:00 58% 40 km
So, 20.05. 2:00 52% 45 km
Sa, 19.05. 20:00 41% 45 km
Sa, 19.05. 14:00 26% 40 km
Sa, 19.05. 8:00 69% 15 km
Sa, 19.05. 2:00 88% 12 km
Ortszeit Relative Feuchte Sichtweite
So, 20.05. 21:30 41% 45 km
So, 20.05. 21:20 41% -
So, 20.05. 21:10 40% -
So, 20.05. 21:00 38% 45 km
So, 20.05. 20:50 38% -
So, 20.05. 20:40 38% -
So, 20.05. 20:30 36% 45 km
So, 20.05. 20:00 35% 45 km
So, 20.05. 19:30 30% 45 km
So, 20.05. 19:00 31% 50 km
So, 20.05. 18:30 30% 50 km
Ortszeit Niederschlagsmenge Niederschlagsart
So, 20.05. 20:00 0.0 l/m2 in 12 Std. -
So, 20.05. 14:00 0.0 l/m2 in 6 Std. -
So, 20.05. 8:00 0.0 l/m2 in 12 Std. -
So, 20.05. 2:00 0.0 l/m2 in 6 Std. -
Sa, 19.05. 20:00 0.0 l/m2 in 12 Std. -
Sa, 19.05. 14:00 0.0 l/m2 in 6 Std. -
Sa, 19.05. 8:00 0.0 l/m2 in 12 Std. -
Sa, 19.05. 2:00 0.0 l/m2 in 6 Std. -
Ortszeit Niederschlagsmenge Niederschlagsart
So, 20.05. 21:30 0.0 l/m2 in 1 Std. -
So, 20.05. 21:20 keine Meldung -
So, 20.05. 21:10 keine Meldung -
So, 20.05. 21:00 0.0 l/m2 in 1 Std. -
So, 20.05. 20:50 keine Meldung -
So, 20.05. 20:40 keine Meldung -
So, 20.05. 20:30 0.0 l/m2 in 1 Std. -
So, 20.05. 20:00 0.0 l/m2 in 1 Std. -
So, 20.05. 19:30 0.0 l/m2 in 1 Std. -
So, 20.05. 19:00 0.0 l/m2 in 1 Std. -
So, 20.05. 18:30 0.0 l/m2 in 1 Std. -
Ortszeit Stärke Spitze Richtung
km/h Bft. km/h Grad Sektor
So, 20.05. 20:00 7 2 40 90° O
So, 20.05. 14:00 14 3 32 80° O
So, 20.05. 8:00 11 2 30 90° O
So, 20.05. 2:00 11 2 24 30° NO
Sa, 19.05. 20:00 9 2 28 30° NO
Sa, 19.05. 14:00 7 2 25 50° NO
Sa, 19.05. 8:00 4 1 14 40° NO
Sa, 19.05. 2:00 9 2 20 290° W
Ortszeit Stärke Spitze Richtung
km/h Bft. km/h Grad Sektor
So, 20.05. 21:30 7 2 14 60° NO
So, 20.05. 21:20 7 2 - 60° NO
So, 20.05. 21:10 7 2 - 70° O
So, 20.05. 21:00 11 2 18 90° O
So, 20.05. 20:50 11 2 - 90° O
So, 20.05. 20:40 11 2 - 90° O
So, 20.05. 20:30 11 2 18 90° O
So, 20.05. 20:00 7 2 22 90° O
So, 20.05. 19:30 11 2 22 90° O
So, 20.05. 19:00 9 2 24 100° O
So, 20.05. 18:30 9 2 24 100° O
Ortszeit Untergrenze Bedeckung Gattung
total tief tief mittel hoch
So, 20.05. 20:00 9000 m 1/8 0/8 - - Ci
So, 20.05. 14:00 7800 m 1/8 0/8 - - Ci
So, 20.05. 8:00 7800 m 1/8 0/8 - - Ci
So, 20.05. 2:00 - 0/8 0/8 - - -
Sa, 19.05. 20:00 7800 m 3/8 0/8 - - Ci
Sa, 19.05. 14:00 6900 m 7/8 7/8 - - Cs
Sa, 19.05. 8:00 7200 m 6/8 0/8 - - Ci
Sa, 19.05. 2:00 930 m 6/8 4/8 Sc - Ci
Ortszeit Bedeckungsgrad in Achtel und Wolkenuntergrenze
So, 20.05. 21:30 1(9000m)
So, 20.05. 21:20 keine Wolken
So, 20.05. 21:10 keine Wolken
So, 20.05. 21:00 1(9000m)
So, 20.05. 20:50 keine Wolken
So, 20.05. 20:40 keine Wolken
So, 20.05. 20:30 keine Wolken
So, 20.05. 20:00 1(9000m)
So, 20.05. 19:30 1(9000m)
So, 20.05. 19:00 1(9000m)
So, 20.05. 18:30 1(9000m)
Ortszeit Luftdruck NN (hPa) Tendenz (hPa in 3 Std.)
So, 20.05. 20:00 1024 - 0,5
So, 20.05. 14:00 1025 - 0,8
So, 20.05. 8:00 1026 + 1,5
So, 20.05. 2:00 1024 + 0,6
Sa, 19.05. 20:00 1022 + 0,1
Sa, 19.05. 14:00 1022 - 0,5
Sa, 19.05. 8:00 1022 + 1,1
Sa, 19.05. 2:00 1021 + 0,2
Ortszeit Luftdruck NN (hPa) Tendenz (hPa in 3 Std.)
So, 20.05. 21:30 1024 + 0,7
So, 20.05. 21:20 1024 keine Meldung
So, 20.05. 21:10 1024 keine Meldung
So, 20.05. 21:00 1024 + 0,2
So, 20.05. 20:50 1024 keine Meldung
So, 20.05. 20:40 1024 keine Meldung
So, 20.05. 20:30 1024 - 0,1
So, 20.05. 20:00 1024 - 0,5
So, 20.05. 19:30 1023 - 0,7
So, 20.05. 19:00 1023 - 0,8
So, 20.05. 18:30 1023 - 1,2
Ortszeit Schneehöhe (cm)
So, 20.05. 20:00 0
So, 20.05. 14:00 0
So, 20.05. 8:00 0
So, 20.05. 2:00 0
Sa, 19.05. 20:00 0
Sa, 19.05. 14:00 0
Sa, 19.05. 8:00 0
Sa, 19.05. 2:00 0
Ortszeit Schneehöhe (cm)
So, 20.05. 21:30 -
So, 20.05. 21:20 -
So, 20.05. 21:10 -
So, 20.05. 21:00 -
So, 20.05. 20:50 -
So, 20.05. 20:40 -
So, 20.05. 20:30 -
So, 20.05. 20:00 0
So, 20.05. 19:30 -
So, 20.05. 19:00 -
So, 20.05. 18:30 -
Link zu dieser Seite / Seite empfehlen

Das Wetter in ...